Time;durP1;ratioP1;P1;durP2;ratioP2;P2;SDS_P1;SDS_P2;PMS_P1;PMS_P2;Temp;Humidity;BMP_temperature;BMP_pressure;BME280_temperature;BME280_humidity;BME280_pressure;Samples;Min_cycle;Max_cycle;Signal;HPM_P1;HPM_P2
2022/11/16 00:01:48;;;;;;;;;;;;;;;12.41;76.56;100167.13;5091917;28;19916;-85
2022/11/16 00:04:33;;;;;;;;;;;;;;;12.49;76.73;100168.97;5091403;28;20380;-85
2022/11/16 00:07:17;;;;;;;;;;;;;;;12.39;76.04;100155.78;5091111;28;19920;-84
2022/11/16 00:10:02;;;;;;;;;;;;;;;12.08;77.64;100159.03;5102372;28;19916;-84
2022/11/16 00:12:46;;;;;;;;;;;;;;;12.14;78.32;100163.13;5086465;28;19920;-84
2022/11/16 00:15:31;;;;;;;;;;;;;;;12.38;77.11;100156.91;5090462;28;19916;-84
2022/11/16 00:18:15;;;;;;;;;;;;;;;12.48;76.62;100153.72;5087983;28;19916;-85
2022/11/16 00:21:02;;;;;;;;;;;;;;;12.48;76.36;100140.09;5103362;28;19916;-85
2022/11/16 00:23:46;;;;;;;;;;;;;;;12.33;76.52;100136.13;5090678;28;19916;-85
2022/11/16 00:26:31;;;;;;;;;;;;;;;12.29;77.05;100129.72;5095190;28;20199;-86
2022/11/16 00:29:17;;;;;;;;;;;;;;;12.27;77.61;100134.75;5081432;28;19917;-85
2022/11/16 00:32:02;;;;;;;;;;;;;;;12.50;76.75;100131.53;5083054;28;19920;-85
2022/11/16 00:34:46;;;;;;;;;;;;;;;12.53;76.50;100126.22;5072216;28;19916;-85
2022/11/16 00:37:31;;;;;;;;;;;;;;;12.57;76.29;100121.66;5072233;28;19929;-85
2022/11/16 00:40:15;;;;;;;;;;;;;;;12.52;76.58;100121.91;5099096;28;19916;-85
2022/11/16 00:43:00;;;;;;;;;;;;;;;12.50;76.34;100118.72;5082435;28;19916;-85
2022/11/16 00:45:44;;;;;;;;;;;;;;;12.50;76.32;100113.25;5069529;28;19916;-85
2022/11/16 00:48:29;;;;;;;;;;;;;;;12.52;76.43;100111.00;5074724;28;19916;-85
2022/11/16 00:51:14;;;;;;;;;;;;;;;12.54;76.37;100110.66;5079301;28;20379;-85
2022/11/16 00:53:59;;;;;;;;;;;;;;;12.48;76.22;100106.56;5100529;28;19916;-84
2022/11/16 00:56:44;;;;;;;;;;;;;;;12.46;76.40;100095.19;5106363;28;19916;-84
2022/11/16 00:59:31;;;;;;;;;;;;;;;12.44;76.36;100093.59;5098518;28;19916;-84
2022/11/16 01:02:17;;;;;;;;;;;;;;;12.46;76.17;100098.72;5080313;28;19916;-84
2022/11/16 01:05:01;;;;;;;;;;;;;;;12.51;76.27;100093.03;5068835;28;19917;-84
2022/11/16 01:07:47;;;;;;;;;;;;;;;12.44;76.45;100088.16;5072969;28;19916;-85
2022/11/16 01:10:32;;;;;;;;;;;;;;;12.33;76.78;100086.25;5092238;28;19920;-84
2022/11/16 01:13:17;;;;;;;;;;;;;;;12.40;76.76;100086.44;5107220;28;19921;-85
2022/11/16 01:16:02;;;;;;;;;;;;;;;12.41;76.33;100077.94;5094151;28;19928;-85
2022/11/16 01:18:48;;;;;;;;;;;;;;;12.38;76.74;100070.44;5098813;28;19919;-86
2022/11/16 01:21:33;;;;;;;;;;;;;;;12.34;76.83;100068.75;5094118;28;19924;-85
2022/11/16 01:24:18;;;;;;;;;;;;;;;12.27;77.47;100068.53;5108810;28;19916;-85
2022/11/16 01:27:02;;;;;;;;;;;;;;;12.27;77.52;100071.25;5099028;28;19920;-84
2022/11/16 01:29:50;;;;;;;;;;;;;;;12.22;77.64;100057.84;5108863;28;19916;-85
2022/11/16 01:32:35;;;;;;;;;;;;;;;12.26;77.30;100050.56;5095073;28;19920;-85
2022/11/16 01:35:21;;;;;;;;;;;;;;;12.30;77.11;100044.09;5089877;28;19920;-84
2022/11/16 01:38:05;;;;;;;;;;;;;;;12.31;77.76;100045.69;5097235;28;19916;-85
2022/11/16 01:40:52;;;;;;;;;;;;;;;12.34;77.03;100049.69;5088561;28;19916;-84
2022/11/16 01:43:50;;;;;;;;;;;;;;;12.39;76.86;100049.44;5094133;28;19923;-85
2022/11/16 01:46:34;;;;;;;;;;;;;;;12.27;77.30;100033.88;5092869;28;19916;-85
2022/11/16 01:49:22;;;;;;;;;;;;;;;12.31;77.30;100032.06;5084205;28;20308;-85
2022/11/16 01:52:15;;;;;;;;;;;;;;;12.37;77.10;100027.97;5074477;28;19921;-84
2022/11/16 01:55:01;;;;;;;;;;;;;;;12.39;76.90;100024.91;5084148;28;19917;-84
2022/11/16 01:57:53;;;;;;;;;;;;;;;12.33;76.96;100024.34;5086110;28;19917;-85
2022/11/16 02:00:38;;;;;;;;;;;;;;;12.34;77.24;100015.00;5090624;28;19916;-85
2022/11/16 02:03:42;;;;;;;;;;;;;;;12.37;77.19;100016.25;5093848;28;19916;-85
2022/11/16 02:06:42;;;;;;;;;;;;;;;12.37;77.04;100005.34;5106246;28;19916;-84
2022/11/16 02:09:52;;;;;;;;;;;;;;;12.36;77.12;100001.81;5088757;28;19917;-85
2022/11/16 02:12:41;;;;;;;;;;;;;;;12.33;77.19;99994.34;5071309;28;19920;-84
2022/11/16 02:15:25;;;;;;;;;;;;;;;12.41;76.69;99993.41;5073904;28;19917;-86
2022/11/16 02:18:28;;;;;;;;;;;;;;;12.40;76.92;99991.81;5077834;28;19924;-86
2022/11/16 02:21:22;;;;;;;;;;;;;;;12.43;76.92;99980.25;5071181;28;19917;-85
2022/11/16 02:24:13;;;;;;;;;;;;;;;12.43;77.19;99974.00;5080931;28;19916;-85
2022/11/16 02:27:03;;;;;;;;;;;;;;;12.46;77.01;99967.03;5094531;28;19916;-85
2022/11/16 02:29:53;;;;;;;;;;;;;;;12.45;76.71;99952.59;5079595;28;19946;-85
2022/11/16 02:32:58;;;;;;;;;;;;;;;12.41;77.49;99955.25;5074478;28;19920;-84
2022/11/16 02:35:46;;;;;;;;;;;;;;;12.45;77.06;99955.31;5086201;28;19921;-85
2022/11/16 02:38:34;;;;;;;;;;;;;;;12.47;76.85;99947.59;5084406;28;19917;-86
2022/11/16 02:41:21;;;;;;;;;;;;;;;12.47;77.01;99949.53;5078125;28;19916;-85
2022/11/16 02:44:21;;;;;;;;;;;;;;;12.48;76.73;99951.13;5076792;28;19916;-86
2022/11/16 02:47:07;;;;;;;;;;;;;;;12.43;76.71;99944.00;5082703;28;19916;-86
2022/11/16 02:49:55;;;;;;;;;;;;;;;12.41;77.11;99949.00;5088786;28;19916;-85
2022/11/16 02:52:39;;;;;;;;;;;;;;;12.39;77.29;99940.38;5096921;28;19920;-86
2022/11/16 02:55:29;;;;;;;;;;;;;;;12.35;77.12;99942.97;5094593;28;19916;-85
2022/11/16 02:58:19;;;;;;;;;;;;;;;12.37;77.23;99940.72;5098730;28;19916;-86
2022/11/16 03:01:03;;;;;;;;;;;;;;;12.40;77.42;99940.00;5097951;28;19916;-86
2022/11/16 03:03:52;;;;;;;;;;;;;;;12.38;77.26;99930.59;5085345;28;19916;-86
2022/11/16 03:06:38;;;;;;;;;;;;;;;12.34;77.27;99927.00;5086766;28;19917;-86
2022/11/16 03:09:30;;;;;;;;;;;;;;;12.31;77.92;99924.94;5084049;28;19920;-85
2022/11/16 03:12:19;;;;;;;;;;;;;;;12.37;77.36;99927.09;5073749;28;19920;-85
2022/11/16 03:15:04;;;;;;;;;;;;;;;12.37;77.46;99923.56;5072310;28;19920;-86
2022/11/16 03:17:49;;;;;;;;;;;;;;;12.36;77.49;99911.06;5076595;28;19917;-86
2022/11/16 03:20:34;;;;;;;;;;;;;;;12.35;77.54;99906.75;5074589;28;19916;-85
2022/11/16 03:23:19;;;;;;;;;;;;;;;12.36;77.78;99900.16;5072119;28;20288;-85
2022/11/16 03:26:07;;;;;;;;;;;;;;;12.37;77.52;99901.75;5071703;28;19916;-86
2022/11/16 03:29:01;;;;;;;;;;;;;;;12.37;77.21;99896.28;5086714;28;19916;-85
2022/11/16 03:31:51;;;;;;;;;;;;;;;12.36;77.59;99894.69;5077537;28;19920;-85
2022/11/16 03:34:40;;;;;;;;;;;;;;;12.31;77.89;99886.78;5087232;28;20319;-85
2022/11/16 03:37:25;;;;;;;;;;;;;;;12.24;77.75;99892.03;5072789;28;20276;-84
2022/11/16 03:40:11;;;;;;;;;;;;;;;12.18;78.44;99887.97;5104316;28;19916;-84
2022/11/16 03:42:57;;;;;;;;;;;;;;;12.15;78.72;99883.19;5092679;28;19916;-84
2022/11/16 03:45:43;;;;;;;;;;;;;;;12.18;78.86;99877.06;5094776;23;19924;-82
2022/11/16 03:48:33;;;;;;;;;;;;;;;12.18;78.50;99877.06;5048996;28;19924;-82
2022/11/16 03:51:19;;;;;;;;;;;;;;;12.23;78.44;99874.09;5077767;28;19916;-82
2022/11/16 03:54:04;;;;;;;;;;;;;;;12.24;78.06;99876.44;5078940;28;20288;-81
2022/11/16 03:56:49;;;;;;;;;;;;;;;12.31;78.12;99881.31;5042847;28;19921;-80
2022/11/16 03:59:34;;;;;;;;;;;;;;;12.33;78.20;99887.22;5054806;28;20309;-81
2022/11/16 04:02:18;;;;;;;;;;;;;;;12.32;78.24;99883.72;5055548;28;19925;-80
2022/11/16 04:29:45;;;;;;;;;;;;;;;12.26;78.50;99857.03;5036919;28;19917;-81
2022/11/16 04:38:37;;;;;;;;;;;;;;;12.17;78.29;99840.84;5037960;28;19917;-81
2022/11/16 04:47:05;;;;;;;;;;;;;;;12.23;78.09;99835.94;5020365;28;19917;-81
2022/11/16 04:47:30;;;;;;;;;;;;;;;12.22;78.10;99831.63;5030630;28;19917;-81
2022/11/16 04:50:15;;;;;;;;;;;;;;;12.22;78.12;99820.72;5052875;28;19917;-79
2022/11/16 04:53:00;;;;;;;;;;;;;;;12.21;77.92;99824.56;5036994;28;19925;-81
2022/11/16 04:55:49;;;;;;;;;;;;;;;12.26;77.75;99824.31;5047652;28;19917;-81
2022/11/16 04:58:34;;;;;;;;;;;;;;;12.23;77.86;99822.31;5040172;28;19916;-80
2022/11/16 05:02:06;;;;;;;;;;;;;;;12.23;77.69;99822.31;5034982;28;19924;-80
2022/11/16 05:04:23;;;;;;;;;;;;;;;12.21;77.95;99827.31;5037761;28;19916;-81
2022/11/16 05:07:12;;;;;;;;;;;;;;;12.21;78.10;99821.84;5034253;28;19921;-81
2022/11/16 05:09:58;;;;;;;;;;;;;;;12.23;78.17;99822.31;5034368;28;20316;-78
2022/11/16 05:12:44;;;;;;;;;;;;;;;12.24;78.08;99827.38;5031894;28;20396;-82
2022/11/16 05:15:29;;;;;;;;;;;;;;;12.20;78.13;99820.25;5031754;28;19921;-82
2022/11/16 05:18:15;;;;;;;;;;;;;;;12.20;78.28;99818.31;5035562;28;19917;-82
2022/11/16 05:20:59;;;;;;;;;;;;;;;12.27;78.02;99818.53;5048230;28;19921;-80
2022/11/16 05:26:49;;;;;;;;;;;;;;;12.29;79.87;99823.66;5019989;28;20592;-83
2022/11/16 05:29:34;;;;;;;;;;;;;;;12.50;79.78;99824.19;5033989;28;19917;-82
2022/11/16 05:32:20;;;;;;;;;;;;;;;12.68;79.97;99822.72;5048574;28;19929;-81
2022/11/16 05:35:05;;;;;;;;;;;;;;;12.79;78.63;99831.19;5034191;28;20120;-82
2022/11/16 05:37:50;;;;;;;;;;;;;;;12.91;77.97;99825.63;5045731;28;19917;-82
2022/11/16 05:40:35;;;;;;;;;;;;;;;13.08;76.07;99827.22;5039272;28;19917;-83
2022/11/16 05:43:19;;;;;;;;;;;;;;;13.10;77.47;99819.47;5046137;28;19921;-82
2022/11/16 05:46:16;;;;;;;;;;;;;;;13.56;75.23;99824.06;5036326;28;19917;-85
2022/11/16 05:49:00;;;;;;;;;;;;;;;13.78;73.55;99825.34;5038427;28;19920;-83
2022/11/16 05:51:46;;;;;;;;;;;;;;;13.94;76.29;99822.53;5049772;28;19917;-83
2022/11/16 05:54:33;;;;;;;;;;;;;;;14.06;72.70;99822.41;5038195;28;19921;-81
2022/11/16 05:57:19;;;;;;;;;;;;;;;14.61;75.18;99826.63;5048088;28;20312;-81
2022/11/16 06:00:04;;;;;;;;;;;;;;;14.87;72.96;99828.63;5055584;28;19916;-82
2022/11/16 06:02:48;;;;;;;;;;;;;;;14.99;71.13;99821.00;5060239;28;20412;-81
2022/11/16 06:05:40;;;;;;;;;;;;;;;15.06;73.22;99806.66;5023500;28;19918;-80
2022/11/16 06:08:25;;;;;;;;;;;;;;;15.25;71.05;99812.03;5035286;28;19921;-79
2022/11/16 06:11:12;;;;;;;;;;;;;;;15.38;71.67;99804.41;5044018;28;20309;-80
2022/11/16 06:13:57;;;;;;;;;;;;;;;15.29;70.19;99801.09;5054733;28;19921;-80
2022/11/16 06:16:41;;;;;;;;;;;;;;;15.37;70.98;99803.59;5040841;28;19917;-80
2022/11/16 06:19:29;;;;;;;;;;;;;;;15.21;69.59;99794.75;5050771;28;19917;-79
2022/11/16 06:22:14;;;;;;;;;;;;;;;15.36;70.66;99802.03;5055828;28;19916;-78
2022/11/16 06:24:59;;;;;;;;;;;;;;;15.54;70.21;99801.53;5049962;28;19921;-80
2022/11/16 06:27:44;;;;;;;;;;;;;;;15.65;69.13;99792.25;5044353;28;19916;-80
2022/11/16 06:30:33;;;;;;;;;;;;;;;15.09;65.43;99784.00;5042621;28;19916;-80
2022/11/16 06:33:20;;;;;;;;;;;;;;;15.05;69.04;99779.63;5040362;28;19920;-80
2022/11/16 06:36:04;;;;;;;;;;;;;;;15.18;67.26;99775.53;5058611;28;19916;-80
2022/11/16 06:38:49;;;;;;;;;;;;;;;14.60;67.17;99783.19;5045524;28;20389;-79
2022/11/16 06:41:36;;;;;;;;;;;;;;;14.43;69.92;99784.44;5053700;28;19916;-79
2022/11/16 06:44:20;;;;;;;;;;;;;;;14.44;69.16;99783.31;5054904;28;19917;-80
2022/11/16 06:47:13;;;;;;;;;;;;;;;14.40;69.20;99776.97;5042982;28;19917;-80
2022/11/16 06:49:58;;;;;;;;;;;;;;;14.82;70.67;99776.94;5040633;28;20389;-80
2022/11/16 06:52:44;;;;;;;;;;;;;;;14.41;69.30;99773.91;5044398;28;19921;-80
2022/11/16 06:55:29;;;;;;;;;;;;;;;14.67;68.67;99762.22;5042883;28;20308;-79
2022/11/16 06:58:14;;;;;;;;;;;;;;;14.38;72.36;99760.94;5054796;28;19917;-80
2022/11/16 07:01:06;;;;;;;;;;;;;;;14.33;72.07;99755.72;5053337;28;19917;-79
2022/11/16 07:03:52;;;;;;;;;;;;;;;14.03;69.34;99746.56;5053931;28;19917;-82
2022/11/16 07:06:37;;;;;;;;;;;;;;;13.73;71.13;99745.59;5039580;28;19916;-81
2022/11/16 07:09:22;;;;;;;;;;;;;;;14.09;71.48;99740.47;5054800;28;19917;-80
2022/11/16 07:12:06;;;;;;;;;;;;;;;14.75;72.91;99738.50;5031118;28;19917;-79
2022/11/16 07:14:54;;;;;;;;;;;;;;;15.22;71.03;99730.59;5046839;28;20411;-81
2022/11/16 07:17:41;;;;;;;;;;;;;;;15.51;69.68;99731.78;5040405;28;19920;-79
2022/11/16 07:20:26;;;;;;;;;;;;;;;15.31;67.38;99739.34;5038943;28;20197;-80
2022/11/16 07:23:10;;;;;;;;;;;;;;;15.48;69.02;99737.22;5046699;28;20396;-80
2022/11/16 07:25:58;;;;;;;;;;;;;;;14.79;66.92;99723.69;5053775;28;19916;-79
2022/11/16 07:28:50;;;;;;;;;;;;;;;14.38;68.42;99717.16;5061919;28;20388;-79
2022/11/16 07:31:38;;;;;;;;;;;;;;;14.13;69.67;99713.97;5051442;28;19917;-78
2022/11/16 07:34:42;;;;;;;;;;;;;;;13.82;70.78;99707.91;5037848;28;19921;-79
2022/11/16 07:37:31;;;;;;;;;;;;;;;13.60;72.49;99699.31;5046182;28;19917;-78
2022/11/16 07:40:16;;;;;;;;;;;;;;;13.53;72.61;99690.16;5048678;28;19917;-80
2022/11/16 07:43:02;;;;;;;;;;;;;;;13.53;72.85;99690.16;5032482;28;19917;-80
2022/11/16 07:45:57;;;;;;;;;;;;;;;13.50;73.93;99694.41;5036348;28;19916;-79
2022/11/16 07:48:42;;;;;;;;;;;;;;;13.61;74.08;99698.13;5060472;28;19917;-80
2022/11/16 07:51:35;;;;;;;;;;;;;;;14.27;74.70;99707.97;5056163;28;19917;-78
2022/11/16 07:54:29;;;;;;;;;;;;;;;14.83;71.93;99710.09;5047584;28;20296;-78
2022/11/16 07:57:14;;;;;;;;;;;;;;;15.20;69.28;99702.78;5062751;28;20377;-79
2022/11/16 08:00:00;;;;;;;;;;;;;;;15.34;68.31;99697.50;5056984;28;19920;-80
2022/11/16 08:02:46;;;;;;;;;;;;;;;15.43;67.40;99691.75;5053920;28;19917;-79
2022/11/16 08:05:35;;;;;;;;;;;;;;;15.48;68.49;99690.63;5033656;28;20385;-80
2022/11/16 08:08:19;;;;;;;;;;;;;;;15.61;68.07;99697.47;5046395;28;20315;-80
2022/11/16 08:11:05;;;;;;;;;;;;;;;15.71;67.34;99702.28;5060558;28;19917;-80
2022/11/16 08:13:50;;;;;;;;;;;;;;;15.67;66.86;99709.69;5044503;28;19921;-80
2022/11/16 08:16:36;;;;;;;;;;;;;;;15.68;66.33;99705.78;5045282;28;19921;-87
2022/11/16 08:19:27;;;;;;;;;;;;;;;15.77;66.49;99706.28;5045618;28;19917;-84
2022/11/16 08:22:12;;;;;;;;;;;;;;;15.77;66.23;99711.75;5043192;28;19917;-84
2022/11/16 08:24:58;;;;;;;;;;;;;;;15.83;66.25;99722.03;5038593;28;19916;-85
2022/11/16 08:27:44;;;;;;;;;;;;;;;15.80;65.86;99721.97;5051199;28;19917;-84
2022/11/16 08:30:30;;;;;;;;;;;;;;;15.62;66.09;99721.75;5042952;28;19920;-85
2022/11/16 08:33:16;;;;;;;;;;;;;;;15.49;66.50;99719.63;5040946;28;19920;-84
2022/11/16 08:36:05;;;;;;;;;;;;;;;15.59;66.92;99721.72;5039771;28;20305;-85
2022/11/16 08:38:51;;;;;;;;;;;;;;;15.47;66.38;99725.47;5043149;28;19920;-84
2022/11/16 08:41:37;;;;;;;;;;;;;;;15.41;67.17;99724.19;5052860;28;20385;-85
2022/11/16 08:44:24;;;;;;;;;;;;;;;15.56;66.26;99723.25;5039213;28;19916;-84
2022/11/16 08:47:11;;;;;;;;;;;;;;;15.60;66.72;99718.59;5034971;28;19917;-85
2022/11/16 08:50:02;;;;;;;;;;;;;;;15.52;66.87;99721.63;5037440;28;19917;-84
2022/11/16 08:52:48;;;;;;;;;;;;;;;15.48;66.04;99723.50;5052820;28;19921;-83
2022/11/16 08:55:33;;;;;;;;;;;;;;;15.56;66.04;99723.25;5055407;28;21091;-85
2022/11/16 08:58:17;;;;;;;;;;;;;;;14.96;68.12;99725.94;5060812;28;19917;-85
2022/11/16 09:01:08;;;;;;;;;;;;;;;14.68;68.74;99714.53;5052518;28;19917;-84
2022/11/16 09:03:53;;;;;;;;;;;;;;;14.52;69.02;99720.16;5042662;28;19917;-85
2022/11/16 09:06:38;;;;;;;;;;;;;;;14.27;70.72;99718.91;5038509;28;20377;-84
2022/11/16 09:09:22;;;;;;;;;;;;;;;14.03;72.21;99719.22;5052698;28;19917;-84
2022/11/16 09:12:07;;;;;;;;;;;;;;;14.22;72.13;99721.16;5042503;28;20513;-84
2022/11/16 09:14:51;;;;;;;;;;;;;;;14.71;71.67;99724.75;5040812;28;19920;-85
2022/11/16 09:17:35;;;;;;;;;;;;;;;15.15;69.58;99724.22;5052421;28;19917;-85
2022/11/16 09:20:20;;;;;;;;;;;;;;;14.89;70.11;99731.28;5037370;28;19920;-85
2022/11/16 09:23:05;;;;;;;;;;;;;;;14.85;69.19;99730.44;5040917;28;19921;-84
2022/11/16 09:25:49;;;;;;;;;;;;;;;15.25;69.23;99734.53;5052317;28;20308;-84
2022/11/16 09:28:33;;;;;;;;;;;;;;;14.82;68.68;99730.41;5052239;28;19917;-85
2022/11/16 09:31:18;;;;;;;;;;;;;;;14.86;69.06;99729.28;5052163;28;19917;-85
2022/11/16 09:34:02;;;;;;;;;;;;;;;14.70;69.96;99731.38;5039286;28;19921;-85
2022/11/16 09:36:47;;;;;;;;;;;;;;;14.85;70.83;99732.38;5037435;28;19917;-84
2022/11/16 09:39:31;;;;;;;;;;;;;;;15.33;69.16;99728.81;5052464;28;20297;-84
2022/11/16 09:42:38;;;;;;;;;;;;;;;15.90;66.03;99732.25;5039525;28;19916;-84
2022/11/16 09:45:41;;;;;;;;;;;;;;;15.55;67.03;99720.88;5052042;28;19916;-85
2022/11/16 09:48:26;;;;;;;;;;;;;;;15.31;67.03;99711.16;5037748;28;19917;-84
2022/11/16 09:51:13;;;;;;;;;;;;;;;15.46;67.00;99706.66;5044301;28;19917;-84
2022/11/16 09:53:59;;;;;;;;;;;;;;;15.26;69.18;99693.09;5044473;28;19921;-84
2022/11/16 09:56:46;;;;;;;;;;;;;;;16.09;66.63;99690.16;5037603;28;19917;-84
2022/11/16 09:59:36;;;;;;;;;;;;;;;16.34;65.59;99680.22;5052582;28;19916;-85
2022/11/16 10:02:26;;;;;;;;;;;;;;;16.54;64.72;99667.03;5043985;28;19917;-85
2022/11/16 10:05:17;;;;;;;;;;;;;;;16.41;63.05;99649.28;5042124;28;19917;-85
2022/11/16 10:08:05;;;;;;;;;;;;;;;16.39;65.37;99644.19;5044103;28;19917;-84
2022/11/16 10:11:02;;;;;;;;;;;;;;;16.85;64.03;99652.78;5038751;28;19920;-84
2022/11/16 10:14:07;;;;;;;;;;;;;;;17.08;62.86;99647.00;5043992;28;19921;-85
2022/11/16 10:16:55;;;;;;;;;;;;;;;17.15;62.85;99649.00;5052442;28;19917;-85
2022/11/16 10:19:48;;;;;;;;;;;;;;;17.30;62.15;99651.44;5044215;28;20297;-84
2022/11/16 10:22:39;;;;;;;;;;;;;;;17.24;60.91;99644.75;5052245;28;19917;-84
2022/11/16 10:25:32;;;;;;;;;;;;;;;17.23;61.95;99642.38;5052326;28;19917;-84
2022/11/16 10:28:32;;;;;;;;;;;;;;;17.07;62.69;99640.72;5043954;28;20381;-85
2022/11/16 10:31:27;;;;;;;;;;;;;;;17.03;62.91;99630.91;5043937;28;19938;-84
2022/11/16 10:34:16;;;;;;;;;;;;;;;17.27;62.17;99632.97;5043803;28;19920;-84
2022/11/16 10:37:05;;;;;;;;;;;;;;;17.30;61.90;99621.22;5052325;28;19917;-84
2022/11/16 10:39:52;;;;;;;;;;;;;;;17.25;61.96;99618.84;5046105;28;19920;-84
2022/11/16 10:42:38;;;;;;;;;;;;;;;17.31;61.73;99622.00;5055703;28;19917;-84
2022/11/16 10:45:27;;;;;;;;;;;;;;;16.87;62.94;99613.94;5044712;28;19917;-84
2022/11/16 10:48:35;;;;;;;;;;;;;;;16.86;62.89;99609.63;5047285;28;19917;-84
2022/11/16 10:51:20;;;;;;;;;;;;;;;16.26;63.74;99590.78;5047208;28;19925;-84
2022/11/16 10:54:12;;;;;;;;;;;;;;;16.29;64.41;99587.28;5055427;28;19921;-84
2022/11/16 10:57:04;;;;;;;;;;;;;;;16.17;65.27;99582.88;5047168;28;19917;-84
2022/11/16 10:59:52;;;;;;;;;;;;;;;16.57;64.44;99579.22;5047124;28;19917;-84
2022/11/16 11:02:38;;;;;;;;;;;;;;;17.02;63.23;99580.66;5040478;28;19917;-83
2022/11/16 11:05:24;;;;;;;;;;;;;;;17.23;62.03;99570.94;5030741;28;19916;-83
2022/11/16 11:08:10;;;;;;;;;;;;;;;17.38;61.38;99578.84;5046383;28;19917;-85
2022/11/16 11:11:02;;;;;;;;;;;;;;;17.48;61.27;99569.03;5044212;28;19917;-84
2022/11/16 11:14:00;;;;;;;;;;;;;;;17.42;61.19;99563.13;5027030;28;20293;-84
2022/11/16 11:16:45;;;;;;;;;;;;;;;17.44;61.37;99560.00;5040066;28;19917;-83
2022/11/16 11:19:29;;;;;;;;;;;;;;;16.85;62.12;99556.66;5055780;28;20056;-84
2022/11/16 11:22:14;;;;;;;;;;;;;;;16.35;63.53;99550.09;5047019;28;19916;-84
2022/11/16 11:25:00;;;;;;;;;;;;;;;16.48;65.06;99534.88;5045531;28;20392;-84
2022/11/16 11:27:44;;;;;;;;;;;;;;;16.98;63.91;99538.66;5046881;28;19916;-84
2022/11/16 11:30:29;;;;;;;;;;;;;;;16.75;63.57;99527.22;5046743;28;20316;-85
2022/11/16 11:33:14;;;;;;;;;;;;;;;16.74;63.33;99522.09;5046588;28;19921;-84
2022/11/16 11:36:04;;;;;;;;;;;;;;;16.66;63.11;99526.75;5054486;28;19917;-86
2022/11/16 11:39:29;;;;;;;;;;;;;;;16.01;65.33;99518.47;5048288;28;19917;-85
2022/11/16 11:42:15;;;;;;;;;;;;;;;15.70;66.37;99503.34;5031235;28;19916;-85
2022/11/16 11:45:03;;;;;;;;;;;;;;;15.57;68.25;99513.03;5054608;28;19921;-85
2022/11/16 11:47:52;;;;;;;;;;;;;;;15.71;67.95;99515.91;5055313;28;19913;-86
2022/11/16 11:50:42;;;;;;;;;;;;;;;16.39;68.72;99519.94;5040735;28;19917;-85
2022/11/16 11:53:45;;;;;;;;;;;;;;;16.60;66.66;99525.56;5040483;28;19921;-85
2022/11/16 11:56:30;;;;;;;;;;;;;;;16.52;65.24;99529.41;5040486;28;20392;-84
2022/11/16 11:59:17;;;;;;;;;;;;;;;16.60;65.38;99528.31;5046627;28;19917;-84
2022/11/16 12:02:14;;;;;;;;;;;;;;;16.80;64.13;99515.06;5046230;28;19917;-85
2022/11/16 12:05:22;;;;;;;;;;;;;;;16.42;64.74;99510.91;5031163;28;19921;-83
2022/11/16 12:08:13;;;;;;;;;;;;;;;16.31;64.28;99512.81;5052087;28;19917;-83
2022/11/16 12:11:05;;;;;;;;;;;;;;;16.16;66.85;99512.72;5040520;28;19921;-82
2022/11/16 12:14:08;;;;;;;;;;;;;;;16.38;64.68;99508.16;5042170;28;19921;-84
2022/11/16 12:17:03;;;;;;;;;;;;;;;16.73;63.52;99507.59;5037353;28;19917;-82
2022/11/16 12:19:56;;;;;;;;;;;;;;;16.73;62.58;99502.09;5042847;28;19917;-82
2022/11/16 12:22:46;;;;;;;;;;;;;;;16.27;64.03;99502.59;5039256;28;19920;-82
2022/11/16 12:26:02;;;;;;;;;;;;;;;16.34;64.83;99490.91;5041055;28;21490;-83
2022/11/16 12:29:06;;;;;;;;;;;;;;;16.40;67.54;99483.09;5046470;28;19917;-83
2022/11/16 12:31:51;;;;;;;;;;;;;;;16.96;66.32;99480.63;5044742;28;19917;-83
2022/11/16 12:34:43;;;;;;;;;;;;;;;17.46;62.75;99488.94;5045437;28;19921;-83
2022/11/16 12:37:39;;;;;;;;;;;;;;;17.60;61.80;99486.22;5054100;28;20408;-85
2022/11/16 12:40:38;;;;;;;;;;;;;;;17.69;64.26;99481.13;5045799;28;19917;-83
2022/11/16 12:43:41;;;;;;;;;;;;;;;17.45;60.88;99479.91;5045833;28;19917;-85
2022/11/16 12:46:46;;;;;;;;;;;;;;;17.11;61.25;99473.19;5037771;28;19917;-84
2022/11/16 12:49:37;;;;;;;;;;;;;;;16.70;62.69;99467.19;5032573;28;20293;-85
2022/11/16 12:52:50;;;;;;;;;;;;;;;16.73;63.89;99463.66;5034132;28;20381;-85
2022/11/16 12:55:38;;;;;;;;;;;;;;;16.63;64.31;99456.97;5036819;28;19921;-85
2022/11/16 12:58:37;;;;;;;;;;;;;;;16.87;62.28;99460.16;5040264;28;19916;-84
2022/11/16 13:01:35;;;;;;;;;;;;;;;16.50;62.92;99465.91;5045126;28;19916;-81
2022/11/16 13:04:35;;;;;;;;;;;;;;;16.24;65.02;99456.75;5044598;28;19920;-83
2022/11/16 13:07:22;;;;;;;;;;;;;;;15.98;65.23;99454.25;5049246;28;19920;-85
2022/11/16 13:10:13;;;;;;;;;;;;;;;16.44;66.79;99451.75;5052642;28;19917;-83
2022/11/16 13:13:00;;;;;;;;;;;;;;;16.31;64.10;99449.72;5052343;28;20305;-82
2022/11/16 13:15:59;;;;;;;;;;;;;;;16.36;63.38;99443.84;5040445;28;19921;-84
2022/11/16 13:18:44;;;;;;;;;;;;;;;15.96;64.42;99434.63;5044809;28;19916;-84
2022/11/16 13:21:31;;;;;;;;;;;;;;;15.80;65.74;99437.66;5039986;28;20309;-83
2022/11/16 13:24:36;;;;;;;;;;;;;;;15.83;65.41;99436.13;5052472;28;20377;-83
2022/11/16 13:27:25;;;;;;;;;;;;;;;16.24;64.40;99434.00;5050885;28;19925;-85
2022/11/16 13:30:27;;;;;;;;;;;;;;;15.96;64.66;99423.66;5041877;28;19936;-78
2022/11/16 13:33:25;;;;;;;;;;;;;;;15.88;66.44;99427.53;5043605;28;19932;-78
2022/11/16 13:36:33;;;;;;;;;;;;;;;15.91;65.06;99421.28;5043617;28;20301;-80
2022/11/16 13:39:18;;;;;;;;;;;;;;;15.51;65.20;99411.22;5048775;28;19917;-78
2022/11/16 13:42:10;;;;;;;;;;;;;;;15.40;65.60;99410.31;5038746;28;19916;-80
2022/11/16 13:45:05;;;;;;;;;;;;;;;15.28;66.53;99411.41;5043500;28;19917;-80
2022/11/16 13:47:51;;;;;;;;;;;;;;;15.13;67.21;99412.44;5054326;28;19917;-79
2022/11/16 13:50:37;;;;;;;;;;;;;;;15.07;67.50;99411.22;5039016;28;19917;-79
2022/11/16 13:53:27;;;;;;;;;;;;;;;15.06;68.63;99409.63;5052351;28;19921;-80
2022/11/16 13:56:12;;;;;;;;;;;;;;;14.94;67.72;99410.69;5041070;28;19916;-82
2022/11/16 13:58:57;;;;;;;;;;;;;;;14.96;67.28;99405.63;5040317;28;19917;-82
2022/11/16 14:01:53;;;;;;;;;;;;;;;14.93;67.88;99417.31;5055096;28;19917;-81
2022/11/16 14:04:40;;;;;;;;;;;;;;;14.91;67.50;99407.91;5055251;28;19924;-80
2022/11/16 14:07:41;;;;;;;;;;;;;;;14.85;67.69;99409.41;5056197;28;19917;-80
2022/11/16 14:10:45;;;;;;;;;;;;;;;14.72;67.94;99411.63;5042929;28;19916;-81
2022/11/16 14:13:36;;;;;;;;;;;;;;;14.66;68.44;99420.56;5033696;28;19920;-83
2022/11/16 14:16:21;;;;;;;;;;;;;;;14.64;68.97;99422.84;5058815;28;19920;-81
2022/11/16 14:19:25;;;;;;;;;;;;;;;14.59;69.00;99426.72;5047026;28;20296;-80
2022/11/16 14:22:29;;;;;;;;;;;;;;;14.53;69.27;99420.78;5044063;28;19917;-81
2022/11/16 14:25:32;;;;;;;;;;;;;;;14.46;68.93;99422.66;5047492;28;19917;-81
2022/11/16 14:28:27;;;;;;;;;;;;;;;14.38;69.33;99421.00;5048942;28;19917;-79
2022/11/16 14:31:26;;;;;;;;;;;;;;;14.33;69.51;99416.59;5054512;28;19921;-80
2022/11/16 14:34:34;;;;;;;;;;;;;;;14.36;70.33;99410.44;5053983;28;20324;-78
2022/11/16 14:37:23;;;;;;;;;;;;;;;14.37;70.12;99406.56;5050914;28;19921;-81
2022/11/16 14:40:13;;;;;;;;;;;;;;;14.38;69.63;99402.63;5039602;28;19917;-82
2022/11/16 14:43:01;;;;;;;;;;;;;;;14.35;70.16;99402.56;5039236;28;19925;-82
2022/11/16 14:45:50;;;;;;;;;;;;;;;14.33;70.14;99391.22;5040054;28;19916;-81
2022/11/16 14:48:42;;;;;;;;;;;;;;;14.36;69.87;99402.25;5040255;28;19924;-80
2022/11/16 14:51:34;;;;;;;;;;;;;;;14.33;70.04;99394.72;5051911;28;19917;-81
2022/11/16 14:54:38;;;;;;;;;;;;;;;14.32;69.83;99404.13;5053632;28;19921;-82
2022/11/16 14:57:23;;;;;;;;;;;;;;;14.30;70.08;99400.94;5038505;28;19920;-80
2022/11/16 15:00:17;;;;;;;;;;;;;;;14.29;69.88;99396.63;5063343;28;19917;-81
2022/11/16 15:03:02;;;;;;;;;;;;;;;14.23;69.77;99387.19;5051405;28;19917;-79
2022/11/16 15:05:46;;;;;;;;;;;;;;;14.29;69.72;99385.69;5039664;28;19921;-80
2022/11/16 15:08:34;;;;;;;;;;;;;;;14.22;69.68;99398.50;5042825;28;20393;-80
2022/11/16 15:11:22;;;;;;;;;;;;;;;14.21;69.54;99396.94;5053980;28;20381;-80
2022/11/16 15:14:07;;;;;;;;;;;;;;;14.17;69.38;99396.09;5039890;28;19921;-80
2022/11/16 15:16:53;;;;;;;;;;;;;;;14.08;69.62;99410.81;5039559;28;19917;-81